createdAt,value
2023-03-21T00:02:17.248Z,8.10
2023-03-21T00:04:52.347Z,9.47
2023-03-21T00:07:21.549Z,9.80
2023-03-21T00:09:49.265Z,10.02
2023-03-21T00:12:17.056Z,9.33
2023-03-21T00:14:44.995Z,8.82
2023-03-21T00:17:13.090Z,9.60
2023-03-21T00:19:41.443Z,9.30
2023-03-21T00:22:09.367Z,7.72
2023-03-21T00:24:37.433Z,8.98
2023-03-21T00:27:33.724Z,8.68
2023-03-21T00:29:53.107Z,8.37
2023-03-21T00:32:21.433Z,9.00
2023-03-21T00:35:38.349Z,9.23
2023-03-21T00:37:37.876Z,7.97
2023-03-21T00:40:16.269Z,8.32
2023-03-21T00:42:51.232Z,8.05
2023-03-21T00:45:19.535Z,7.33
2023-03-21T00:47:48.516Z,6.57
2023-03-21T00:50:16.579Z,7.63
2023-03-21T00:52:44.326Z,6.28
2023-03-21T00:55:17.935Z,8.27
2023-03-21T00:57:50.127Z,7.43
2023-03-21T01:00:20.961Z,7.18
2023-03-21T01:03:08.426Z,6.73
2023-03-21T01:06:01.654Z,7.00
2023-03-21T01:08:38.155Z,6.85
2023-03-21T01:11:13.566Z,6.67
2023-03-21T01:13:52.893Z,5.70
2023-03-21T01:16:22.305Z,4.85
2023-03-21T01:18:50.099Z,7.22
2023-03-21T01:21:18.101Z,7.50
2023-03-21T01:23:46.406Z,7.40
2023-03-21T01:26:14.442Z,6.10
2023-03-21T01:28:42.546Z,6.40
2023-03-21T01:31:10.495Z,7.47
2023-03-21T01:33:38.315Z,7.55
2023-03-21T01:36:12.683Z,7.57
2023-03-21T01:38:41.777Z,7.32
2023-03-21T01:41:19.291Z,7.97
2023-03-21T01:43:47.915Z,7.85
2023-03-21T01:46:21.783Z,7.47
2023-03-21T01:48:51.486Z,8.13
2023-03-21T01:51:19.344Z,7.90
2023-03-21T01:53:47.316Z,9.47
2023-03-21T01:56:17.687Z,8.80
2023-03-21T01:58:45.435Z,11.13
2023-03-21T02:01:13.218Z,11.83
2023-03-21T02:03:50.764Z,11.15
2023-03-21T02:06:35.510Z,11.15
2023-03-21T02:09:04.903Z,9.38
2023-03-21T02:11:33.451Z,10.27
2023-03-21T02:14:06.645Z,8.82
2023-03-21T02:16:49.998Z,8.25
2023-03-21T02:19:33.110Z,6.77
2023-03-21T02:22:03.432Z,6.90
2023-03-21T02:24:31.201Z,6.50
2023-03-21T02:27:04.228Z,7.60
2023-03-21T02:29:38.230Z,5.18
2023-03-21T02:32:20.372Z,6.30
2023-03-21T02:34:56.704Z,6.32
2023-03-21T02:37:37.555Z,6.50
2023-03-21T02:40:12.225Z,6.95
2023-03-21T02:42:59.494Z,6.57
2023-03-21T02:45:29.256Z,7.23
2023-03-21T02:47:58.781Z,8.05
2023-03-21T02:50:31.301Z,7.78
2023-03-21T02:52:59.050Z,9.80
2023-03-21T02:55:27.368Z,9.43
2023-03-21T02:57:56.595Z,9.65
2023-03-21T03:00:27.957Z,10.25
2023-03-21T03:03:07.881Z,8.73
2023-03-21T03:05:37.348Z,9.23
2023-03-21T03:08:14.437Z,9.35
2023-03-21T03:10:42.211Z,9.37
2023-03-21T03:13:13.062Z,9.95
2023-03-21T03:15:56.056Z,8.40
2023-03-21T03:18:26.955Z,9.67
2023-03-21T03:21:02.613Z,8.57
2023-03-21T03:23:42.741Z,8.63
2023-03-21T03:26:13.020Z,8.65
2023-03-21T03:28:42.186Z,9.27
2023-03-21T03:31:12.114Z,6.43
2023-03-21T03:33:41.711Z,7.10
2023-03-21T03:36:18.815Z,7.47
2023-03-21T03:38:56.377Z,7.93
2023-03-21T03:41:26.109Z,7.50
2023-03-21T03:43:55.060Z,6.73
2023-03-21T03:46:33.648Z,8.20
2023-03-21T03:49:12.504Z,7.38
2023-03-21T03:51:43.610Z,6.55
2023-03-21T03:54:12.842Z,7.97
2023-03-21T03:56:40.632Z,4.80
2023-03-21T03:59:08.563Z,7.80
2023-03-21T04:01:36.235Z,4.20
2023-03-21T04:04:13.030Z,5.95
2023-03-21T04:06:41.570Z,6.40
2023-03-21T04:09:19.138Z,7.27
2023-03-21T04:11:48.758Z,6.38
2023-03-21T04:14:16.694Z,6.80
2023-03-21T04:16:44.480Z,6.50
2023-03-21T04:19:12.269Z,8.03
2023-03-21T04:21:40.140Z,7.80
2023-03-21T04:24:07.859Z,6.63
2023-03-21T04:26:36.123Z,7.43
2023-03-21T04:29:03.923Z,5.93
2023-03-21T04:31:34.084Z,7.35
2023-03-21T04:34:02.410Z,7.77
2023-03-21T04:36:39.342Z,7.80
2023-03-21T04:39:12.478Z,7.35
2023-03-21T04:41:41.242Z,7.45
2023-03-21T04:44:09.230Z,6.47
2023-03-21T04:46:37.012Z,7.03
2023-03-21T04:49:07.140Z,5.22
2023-03-21T04:51:35.163Z,6.83
2023-03-21T04:54:02.870Z,6.60
2023-03-21T04:56:34.251Z,6.95
2023-03-21T04:59:03.209Z,5.47
2023-03-21T05:01:31.057Z,8.40
2023-03-21T05:03:59.593Z,6.88
2023-03-21T05:06:28.075Z,6.75
2023-03-21T05:09:05.631Z,6.30
2023-03-21T05:11:35.925Z,6.15
2023-03-21T05:14:03.647Z,6.00
2023-03-21T05:16:31.323Z,6.40
2023-03-21T05:18:59.374Z,6.55
2023-03-21T05:21:34.515Z,6.30
2023-03-21T05:24:03.771Z,7.70
2023-03-21T05:26:31.519Z,7.25
2023-03-21T05:28:59.314Z,7.03
2023-03-21T05:31:27.032Z,6.25
2023-03-21T05:33:54.700Z,5.43
2023-03-21T05:36:22.414Z,5.85
2023-03-21T05:38:50.079Z,5.55
2023-03-21T05:41:21.676Z,5.63
2023-03-21T05:43:49.363Z,5.85
2023-03-21T05:46:18.791Z,4.95
2023-03-21T05:48:46.586Z,5.20
2023-03-21T05:51:14.317Z,4.63
2023-03-21T05:53:42.043Z,5.30
2023-03-21T05:56:10.226Z,5.53
2023-03-21T05:58:37.951Z,3.87
2023-03-21T06:01:06.764Z,5.20
2023-03-21T06:03:34.583Z,4.10
2023-03-21T06:06:03.654Z,3.67
2023-03-21T06:08:32.377Z,4.70
2023-03-21T06:11:00.023Z,3.33
2023-03-21T06:13:27.794Z,4.87
2023-03-21T06:15:55.493Z,4.35
2023-03-21T06:18:23.198Z,4.15
2023-03-21T06:20:50.873Z,4.20
2023-03-21T06:23:18.726Z,4.03
2023-03-21T06:25:46.406Z,4.43
2023-03-21T06:28:14.170Z,4.47
2023-03-21T06:30:41.950Z,4.57
2023-03-21T06:33:09.704Z,4.57
2023-03-21T06:35:37.626Z,3.85
2023-03-21T06:38:06.242Z,4.03
2023-03-21T06:40:33.989Z,4.10
2023-03-21T06:43:01.778Z,4.50
2023-03-21T06:45:29.558Z,4.72
2023-03-21T06:47:59.706Z,5.00
2023-03-21T06:50:30.108Z,4.60
2023-03-21T06:52:59.494Z,4.03
2023-03-21T06:55:29.073Z,5.13
2023-03-21T06:57:57.705Z,5.38
2023-03-21T07:00:25.604Z,4.80
2023-03-21T07:02:55.008Z,4.07
2023-03-21T07:05:22.877Z,4.28
2023-03-21T07:07:50.954Z,5.50
2023-03-21T07:10:19.868Z,3.30
2023-03-21T07:13:01.142Z,4.90
2023-03-21T07:15:28.828Z,4.45
2023-03-21T07:17:58.692Z,4.68
2023-03-21T07:20:27.263Z,4.47
2023-03-21T07:22:55.003Z,4.82
2023-03-21T07:25:22.832Z,3.90
2023-03-21T07:27:53.010Z,3.97
2023-03-21T07:30:20.831Z,4.47
2023-03-21T07:32:49.055Z,4.18
2023-03-21T07:35:19.501Z,4.20
2023-03-21T07:37:47.348Z,3.30
2023-03-21T07:40:15.149Z,4.03
2023-03-21T07:42:42.883Z,4.05
2023-03-21T07:45:10.914Z,3.40
2023-03-21T07:47:38.746Z,4.03
2023-03-21T07:50:07.165Z,4.50
2023-03-21T07:52:34.958Z,4.33
2023-03-21T07:55:02.683Z,3.30
2023-03-21T07:57:30.419Z,2.70
2023-03-21T07:59:58.247Z,3.50
2023-03-21T08:02:26.531Z,3.50
2023-03-21T08:04:54.282Z,3.95
2023-03-21T08:07:22.051Z,3.40
2023-03-21T08:09:49.837Z,3.80
2023-03-21T08:12:18.574Z,3.08
2023-03-21T08:14:46.325Z,3.88
2023-03-21T08:17:14.016Z,2.77
2023-03-21T08:19:41.706Z,3.28
2023-03-21T08:22:11.122Z,3.67
2023-03-21T08:24:38.918Z,3.53
2023-03-21T08:27:06.621Z,2.80
2023-03-21T08:29:34.323Z,2.95
2023-03-21T08:32:02.031Z,3.20
2023-03-21T08:34:29.971Z,3.00
2023-03-21T08:36:57.656Z,3.00
2023-03-21T08:39:26.288Z,3.45
2023-03-21T08:41:53.969Z,3.60
2023-03-21T08:44:22.326Z,3.45
2023-03-21T08:46:50.041Z,3.42
2023-03-21T08:49:17.766Z,3.88
2023-03-21T08:51:45.927Z,4.37
2023-03-21T08:54:20.785Z,3.50
2023-03-21T08:56:48.481Z,2.95
2023-03-21T08:59:16.482Z,3.20
2023-03-21T09:01:45.558Z,2.83
2023-03-21T09:04:13.493Z,2.38
2023-03-21T09:06:48.269Z,3.00
2023-03-21T09:09:16.552Z,1.83
2023-03-21T09:11:44.270Z,2.53
2023-03-21T09:14:11.959Z,2.97
2023-03-21T09:16:39.754Z,2.77
2023-03-21T09:19:08.751Z,2.58
2023-03-21T09:21:36.940Z,2.15
2023-03-21T09:24:06.870Z,2.77
2023-03-21T09:26:34.676Z,2.50
2023-03-21T09:29:03.301Z,2.80
2023-03-21T09:31:31.214Z,1.77
2023-03-21T09:33:59.541Z,3.25
2023-03-21T09:36:27.384Z,2.95
2023-03-21T09:38:57.010Z,3.40
2023-03-21T09:41:42.850Z,3.07
2023-03-21T09:44:24.873Z,3.35
2023-03-21T09:47:14.076Z,3.58
2023-03-21T09:49:43.691Z,3.10
2023-03-21T09:52:24.772Z,5.05
2023-03-21T09:54:52.788Z,3.13
2023-03-21T09:57:26.483Z,4.17
2023-03-21T09:59:54.906Z,3.83
2023-03-21T10:02:40.953Z,4.40
2023-03-21T10:05:19.040Z,3.60
2023-03-21T10:08:07.650Z,3.90
2023-03-21T10:10:37.737Z,4.22
2023-03-21T10:13:06.425Z,3.65
2023-03-21T10:15:34.165Z,4.27
2023-03-21T10:18:02.750Z,5.03
2023-03-21T10:20:31.563Z,3.47
2023-03-21T10:22:59.962Z,4.73
2023-03-21T10:25:34.647Z,3.30
2023-03-21T10:28:02.594Z,3.80
2023-03-21T10:30:36.760Z,5.85
2023-03-21T10:33:05.826Z,4.97
2023-03-21T10:35:34.552Z,5.80
2023-03-21T10:38:02.351Z,6.38
2023-03-21T10:40:30.236Z,5.90
2023-03-21T10:42:59.517Z,6.72
2023-03-21T10:45:29.676Z,6.75
2023-03-21T10:47:59.427Z,7.17
2023-03-21T10:50:28.265Z,7.00
2023-03-21T10:53:00.765Z,4.47
2023-03-21T10:55:29.296Z,6.78
2023-03-21T10:58:01.370Z,4.50
2023-03-21T11:00:30.176Z,7.28
2023-03-21T11:02:57.882Z,4.07
2023-03-21T11:05:34.424Z,6.93
2023-03-21T11:08:11.982Z,5.10
2023-03-21T11:11:00.002Z,4.95
2023-03-21T11:13:28.761Z,3.53
2023-03-21T11:15:58.576Z,5.60
2023-03-21T11:18:27.045Z,5.65
2023-03-21T11:20:55.791Z,4.00
2023-03-21T11:23:26.563Z,5.77
2023-03-21T11:25:54.275Z,5.82
2023-03-21T11:28:23.200Z,4.53
2023-03-21T11:30:51.572Z,6.00
2023-03-21T11:33:19.767Z,4.82
2023-03-21T11:35:58.876Z,5.82
2023-03-21T11:38:27.732Z,4.07
2023-03-21T11:40:57.729Z,4.90
2023-03-21T11:43:29.433Z,5.85
2023-03-21T11:45:58.560Z,5.20
2023-03-21T11:48:26.526Z,3.80
2023-03-21T11:50:57.361Z,4.32
2023-03-21T11:53:28.059Z,5.50
2023-03-21T11:56:19.083Z,4.03
2023-03-21T11:58:52.988Z,3.42
2023-03-21T12:01:25.225Z,4.07
2023-03-21T12:03:56.973Z,2.20
2023-03-21T12:06:30.913Z,4.07
2023-03-21T12:09:04.530Z,3.67
2023-03-21T12:11:35.522Z,2.92
2023-03-21T12:14:12.542Z,2.63
2023-03-21T12:16:49.524Z,3.58
2023-03-21T12:19:43.511Z,3.72
2023-03-21T12:22:14.049Z,3.63
2023-03-21T12:25:08.850Z,4.25
2023-03-21T12:27:48.827Z,2.92
2023-03-21T12:30:23.988Z,4.10
2023-03-21T12:33:10.421Z,3.88
2023-03-21T12:35:56.921Z,3.72
2023-03-21T12:38:27.275Z,3.35
2023-03-21T12:40:54.946Z,4.73
2023-03-21T12:43:28.290Z,3.67
2023-03-21T12:45:57.349Z,3.13
2023-03-21T12:48:25.280Z,3.70
2023-03-21T12:50:53.569Z,4.20
2023-03-21T12:53:56.948Z,4.80
2023-03-21T12:56:28.446Z,3.33
2023-03-21T12:59:01.112Z,3.65
2023-03-21T13:01:28.998Z,4.90
2023-03-21T13:04:16.207Z,2.60
2023-03-21T13:06:44.506Z,5.20
2023-03-21T13:09:37.889Z,5.53
2023-03-21T13:12:14.144Z,4.00
2023-03-21T13:14:45.431Z,3.57
2023-03-21T13:17:39.674Z,3.67
2023-03-21T13:20:17.056Z,2.97
2023-03-21T13:22:44.777Z,5.43
2023-03-21T13:25:20.300Z,5.20
2023-03-21T13:27:54.593Z,3.35
2023-03-21T13:30:23.412Z,2.70
2023-03-21T13:32:51.697Z,4.67
2023-03-21T13:35:20.503Z,3.97
2023-03-21T13:37:51.993Z,3.53
2023-03-21T13:40:23.650Z,2.93
2023-03-21T13:42:52.897Z,4.47
2023-03-21T13:45:28.661Z,4.07
2023-03-21T13:47:57.688Z,3.93
2023-03-21T13:50:26.547Z,3.42
2023-03-21T13:53:03.269Z,4.32
2023-03-21T13:55:38.449Z,4.70
2023-03-21T13:58:35.816Z,4.97
2023-03-21T14:01:09.616Z,4.78
2023-03-21T14:03:37.341Z,5.03
2023-03-21T14:06:08.300Z,5.20
2023-03-21T14:08:37.732Z,4.68
2023-03-21T14:11:07.521Z,5.40
2023-03-21T14:13:48.364Z,5.10
2023-03-21T14:16:19.595Z,5.25
2023-03-21T14:18:54.230Z,3.97
2023-03-21T14:21:26.922Z,5.35
2023-03-21T14:24:01.310Z,5.43
2023-03-21T14:26:30.567Z,4.53
2023-03-21T14:28:58.901Z,5.93
2023-03-21T14:31:26.673Z,4.73
2023-03-21T14:33:58.292Z,4.70
2023-03-21T14:36:27.257Z,4.88
2023-03-21T14:39:16.336Z,5.33
2023-03-21T14:41:45.029Z,4.80
2023-03-21T14:44:13.779Z,5.95
2023-03-21T14:46:42.017Z,5.85
2023-03-21T14:49:30.164Z,5.63
2023-03-21T14:51:59.003Z,5.15
2023-03-21T14:54:27.558Z,5.57
2023-03-21T14:57:15.197Z,5.37
2023-03-21T14:59:42.995Z,5.43
2023-03-21T15:02:18.533Z,4.47
2023-03-21T15:04:53.361Z,4.63
2023-03-21T15:07:32.413Z,4.07
2023-03-21T15:10:04.983Z,3.35
2023-03-21T15:12:32.901Z,4.72
2023-03-21T15:15:01.548Z,5.23
2023-03-21T15:17:29.319Z,5.13
2023-03-21T15:19:57.292Z,5.65
2023-03-21T15:22:40.905Z,5.47
2023-03-21T15:25:09.103Z,6.40
2023-03-21T15:27:39.051Z,5.95
2023-03-21T15:30:07.029Z,6.50
2023-03-21T15:32:36.012Z,6.82
2023-03-21T15:35:07.683Z,6.05
2023-03-21T15:37:36.748Z,6.33
2023-03-21T15:40:20.712Z,6.13
2023-03-21T15:42:48.466Z,4.87
2023-03-21T15:45:23.633Z,5.80
2023-03-21T15:47:51.661Z,5.32
2023-03-21T15:50:25.596Z,5.33
2023-03-21T15:53:01.542Z,4.76
2023-03-21T15:55:39.723Z,4.90
2023-03-21T15:58:09.963Z,5.70
2023-03-21T16:00:41.476Z,5.20
2023-03-21T16:03:17.324Z,5.65
2023-03-21T16:06:01.767Z,5.97
2023-03-21T16:08:30.726Z,5.93
2023-03-21T16:11:06.469Z,6.28
2023-03-21T16:13:34.220Z,6.70
2023-03-21T16:16:01.972Z,6.43
2023-03-21T16:18:31.623Z,6.55
2023-03-21T16:20:59.565Z,6.83
2023-03-21T16:23:28.948Z,6.60
2023-03-21T16:25:59.095Z,7.20
2023-03-21T16:28:27.007Z,6.85
2023-03-21T16:30:54.785Z,6.63
2023-03-21T16:33:22.478Z,7.72
2023-03-21T16:35:54.322Z,7.95
2023-03-21T16:38:22.113Z,9.13
2023-03-21T16:40:51.375Z,10.35
2023-03-21T16:43:19.148Z,8.20
2023-03-21T16:45:48.402Z,12.13
2023-03-21T16:48:17.766Z,7.82
2023-03-21T16:50:47.430Z,7.38
2023-03-21T16:53:15.186Z,8.77
2023-03-21T16:55:42.988Z,8.33
2023-03-21T16:58:11.800Z,8.48
2023-03-21T17:00:40.462Z,8.90
2023-03-21T17:03:15.437Z,8.57
2023-03-21T17:05:43.493Z,10.35
2023-03-21T17:08:15.577Z,8.30
2023-03-21T17:10:43.380Z,9.00
2023-03-21T17:13:11.252Z,8.95
2023-03-21T17:15:39.690Z,9.23
2023-03-21T17:18:07.525Z,8.00
2023-03-21T17:20:38.026Z,7.70
2023-03-21T17:23:07.598Z,8.15
2023-03-21T17:25:38.312Z,7.60
2023-03-21T17:28:06.150Z,6.53
2023-03-21T17:30:35.185Z,8.00
2023-03-21T17:33:03.172Z,8.23
2023-03-21T17:35:30.940Z,9.53
2023-03-21T17:38:00.626Z,9.00
2023-03-21T17:40:29.369Z,9.20
2023-03-21T17:42:59.750Z,8.48
2023-03-21T17:45:27.616Z,9.77
2023-03-21T17:47:55.643Z,9.00
2023-03-21T17:50:24.175Z,9.32
2023-03-21T17:52:52.222Z,8.20
2023-03-21T17:55:21.340Z,10.02
2023-03-21T17:57:49.741Z,7.43
2023-03-21T18:00:27.263Z,8.07
2023-03-21T18:02:55.051Z,6.82
2023-03-21T18:05:23.063Z,8.52
2023-03-21T18:08:09.819Z,8.23
2023-03-21T18:10:39.018Z,8.30
2023-03-21T18:13:07.052Z,7.97
2023-03-21T18:15:35.966Z,7.72
2023-03-21T18:18:05.647Z,7.40
2023-03-21T18:23:21.409Z,7.97
2023-03-21T18:25:49.326Z,7.07
2023-03-21T18:28:20.361Z,6.32
2023-03-21T18:33:40.576Z,4.00
2023-03-21T18:36:09.133Z,6.23
2023-03-21T18:38:37.249Z,6.45
2023-03-21T18:41:05.555Z,5.70
2023-03-21T18:46:20.918Z,5.75
2023-03-21T18:48:49.200Z,4.97
2023-03-21T18:51:19.503Z,4.83
2023-03-21T18:53:47.232Z,5.93
2023-03-21T18:59:08.685Z,5.60
2023-03-21T19:01:36.713Z,5.03
2023-03-21T19:06:53.625Z,4.00
2023-03-21T19:09:29.133Z,5.47
2023-03-21T19:11:59.412Z,4.97
2023-03-21T19:14:27.110Z,4.90
2023-03-21T19:17:38.358Z,5.07
2023-03-21T19:19:44.485Z,5.47
2023-03-21T19:22:13.329Z,5.80
2023-03-21T19:24:41.451Z,4.95
2023-03-21T19:27:10.321Z,6.00
2023-03-21T19:29:38.139Z,5.53
2023-03-21T19:32:06.029Z,5.03
2023-03-21T19:34:33.944Z,5.23
2023-03-21T19:37:02.585Z,6.15
2023-03-21T19:39:31.081Z,5.88
2023-03-21T19:42:14.992Z,6.40
2023-03-21T19:44:44.248Z,6.32
2023-03-21T19:47:11.968Z,6.20
2023-03-21T19:52:32.021Z,6.00
2023-03-21T19:54:59.775Z,5.75
2023-03-21T19:57:27.412Z,5.75
2023-03-21T19:59:55.138Z,6.07
2023-03-21T20:02:35.684Z,7.03
2023-03-21T20:05:07.026Z,5.60
2023-03-21T20:07:36.082Z,7.07
2023-03-21T20:10:04.878Z,6.38
2023-03-21T20:12:33.427Z,6.15
2023-03-21T20:15:15.702Z,5.30
2023-03-21T20:17:45.178Z,4.60
2023-03-21T20:20:18.760Z,6.60
2023-03-21T20:25:37.233Z,3.83
2023-03-21T20:28:26.083Z,4.70
2023-03-21T20:30:54.191Z,5.43
2023-03-21T20:33:22.349Z,7.13
2023-03-21T20:38:40.268Z,4.03
2023-03-21T20:41:08.031Z,6.07
2023-03-21T20:46:27.402Z,5.70
2023-03-21T20:48:55.295Z,5.22
2023-03-21T20:54:11.616Z,3.67
2023-03-21T20:56:39.507Z,5.55
2023-03-21T20:59:18.187Z,5.00
2023-03-21T21:01:51.532Z,4.97
2023-03-21T21:04:20.578Z,4.55
2023-03-21T21:06:48.943Z,4.97
2023-03-21T21:09:16.963Z,3.23
2023-03-21T21:14:32.345Z,3.67
2023-03-21T21:17:04.926Z,3.43
2023-03-21T21:19:40.216Z,3.95
2023-03-21T21:22:08.023Z,3.45
2023-03-21T21:24:35.792Z,5.30
2023-03-21T21:27:06.171Z,5.30
2023-03-21T21:29:33.829Z,4.47
2023-03-21T21:32:05.958Z,4.45
2023-03-21T21:34:33.686Z,3.50
2023-03-21T21:37:02.279Z,3.83
2023-03-21T21:39:31.642Z,2.80
2023-03-21T21:41:59.373Z,3.47
2023-03-21T21:44:27.576Z,2.83
2023-03-21T21:46:55.541Z,2.65
2023-03-21T21:49:23.266Z,2.97
2023-03-21T21:51:50.942Z,3.38
2023-03-21T21:54:18.763Z,3.33
2023-03-21T21:56:54.356Z,2.55
2023-03-21T21:59:22.424Z,2.30
2023-03-21T22:01:51.554Z,3.42
2023-03-21T22:04:24.883Z,2.40
2023-03-21T22:06:52.997Z,3.63
2023-03-21T22:09:21.146Z,3.22
2023-03-21T22:11:48.839Z,2.92
2023-03-21T22:14:16.958Z,2.73
2023-03-21T22:16:44.849Z,3.35
2023-03-21T22:19:12.666Z,3.17
2023-03-21T22:21:40.547Z,2.83
2023-03-21T22:24:08.453Z,2.60
2023-03-21T22:26:36.558Z,2.33
2023-03-21T22:29:04.530Z,2.08
2023-03-21T22:31:32.954Z,2.40
2023-03-21T22:34:00.897Z,2.60
2023-03-21T22:36:28.658Z,1.90
2023-03-21T22:38:56.545Z,2.27
2023-03-21T22:41:24.294Z,2.10
2023-03-21T22:43:51.926Z,1.55
2023-03-21T22:46:22.684Z,2.00
2023-03-21T22:48:50.632Z,1.60
2023-03-21T22:51:19.457Z,1.33
2023-03-21T22:53:47.244Z,1.30
2023-03-21T22:56:16.055Z,1.53
2023-03-21T22:58:44.044Z,1.45
2023-03-21T23:01:11.731Z,1.95
2023-03-21T23:03:39.548Z,1.60
2023-03-21T23:06:07.472Z,1.60
2023-03-21T23:08:35.354Z,2.15
2023-03-21T23:11:09.049Z,1.90
2023-03-21T23:13:36.990Z,2.47
2023-03-21T23:16:07.655Z,2.42
2023-03-21T23:18:37.208Z,1.88
2023-03-21T23:21:06.525Z,1.77
2023-03-21T23:23:36.937Z,2.25
2023-03-21T23:26:04.641Z,2.00
2023-03-21T23:28:33.137Z,3.00
2023-03-21T23:31:01.186Z,2.60
2023-03-21T23:33:28.950Z,2.25
2023-03-21T23:35:56.761Z,3.33
2023-03-21T23:38:27.607Z,3.10
2023-03-21T23:40:55.428Z,3.08
2023-03-21T23:43:23.091Z,3.17
2023-03-21T23:45:52.234Z,3.87
2023-03-21T23:48:20.385Z,3.60
2023-03-21T23:50:48.239Z,3.45
2023-03-21T23:53:16.522Z,3.00
2023-03-21T23:55:46.704Z,4.32
2023-03-21T23:58:14.538Z,3.10
